Eliza — WDG9716 — position and weather

sailwx.info

Track history (hours):
 
Tides and Currents Weather Stations Pressure Air Temp Water Temp Dewpoint Dewpoint Depression Visibility Wind Speed Wind Dir Waves Ship Positions

Eliza

Owner: Kirby Offshore Marine, LLC, Staten Island, NY. More information available from US FCC via Universal Licensing System and Coast Guard Vessel Documentation Center.

Last reported at 2018-Feb-21 06:17 UTC. Time now 2018-Feb-22 16:40 UTC.
Position N 29°21' W 094°44'.

Length 173 m; draft 6 m.

Type: . MMSI: 366672810.

Date/timePositionNaut miles runAvg speedWind from/ knotsBaromVisibWave heightAir tempDewpointWater temp
2018-Feb-21 06:17N 29°21' W 094°44'9 0.5
2018-Feb-20 13:28N 29°21' W 094°34'0 0.0
2018-Feb-20 12:55N 29°21' W 094°34'0 0.0
2018-Feb-20 12:28N 29°21' W 094°34'0 0.0
2018-Feb-20 06:52N 29°21' W 094°34'0 0.1
2018-Feb-20 06:28N 29°21' W 094°34'15 1.7
2018-Feb-19 21:42N 29°10' W 094°22'210.5
2018-Feb-19 21:30N 29°11' W 094°21'910.6
2018-Feb-19 20:41N 29°17' W 094°13'310.7
2018-Feb-19 20:25N 29°19' W 094°11'410.6
2018-Feb-19 20:00N 29°22' W 094°07'510.7
2018-Feb-19 19:31N 29°25' W 094°03'510.7
2018-Feb-19 19:01N 29°29' W 093°58'710.9
2018-Feb-19 18:23N 29°31' W 093°50'410.6
2018-Feb-19 18:00N 29°32' W 093°46'4 8.1
2018-Feb-19 17:31N 29°36' W 093°48'611.0
2018-Feb-19 17:00N 29°41' W 093°50'510.9
2018-Feb-19 16:30N 29°45' W 093°54'5 9.7
2018-Feb-19 16:00N 29°49' W 093°57'3 5.7
2018-Feb-19 15:30N 29°52' W 093°56'0 0.0
2018-Feb-19 15:00N 29°52' W 093°56'0 0.0
2018-Feb-19 14:30N 29°52' W 093°56'0 0.0
2018-Feb-19 14:00N 29°52' W 093°56'0 0.0
2018-Feb-19 13:30N 29°52' W 093°56'0 0.0
2018-Feb-19 13:00N 29°52' W 093°56'0 0.0
2018-Feb-19 12:30N 29°52' W 093°56'0 0.0
2018-Feb-19 12:00N 29°52' W 093°56'0 0.0
2018-Feb-19 11:30N 29°52' W 093°56'0 0.0
2018-Feb-19 11:00N 29°52' W 093°56'0 0.0
2018-Feb-19 10:30N 29°52' W 093°56'0 0.0
2018-Feb-19 10:00N 29°52' W 093°56'0 0.0
2018-Feb-19 09:30N 29°52' W 093°56'0 0.0
2018-Feb-19 09:00N 29°52' W 093°56'0 0.0
2018-Feb-19 08:30N 29°52' W 093°56'0 0.0
2018-Feb-19 08:00N 29°52' W 093°56'0 0.0
2018-Feb-19 07:30N 29°52' W 093°56'0 0.0
2018-Feb-19 07:00N 29°52' W 093°56'0 0.0
2018-Feb-19 06:30N 29°52' W 093°56'0 0.0
2018-Feb-19 06:00N 29°52' W 093°56'0 0.0
2018-Feb-19 05:30N 29°52' W 093°56'0 0.0
2018-Feb-19 05:00N 29°52' W 093°56'0 0.0
2018-Feb-19 04:30N 29°52' W 093°56'0 0.0
2018-Feb-19 04:00N 29°52' W 093°56'0 0.0
2018-Feb-19 03:30N 29°52' W 093°56'0 0.0
2018-Feb-19 03:00N 29°52' W 093°56'0 0.0
2018-Feb-19 02:30N 29°52' W 093°56'0 0.0
2018-Feb-19 02:00N 29°52' W 093°56'0 0.0
2018-Feb-19 01:30N 29°52' W 093°56'0 0.0
2018-Feb-19 01:00N 29°52' W 093°56'0 0.0
2018-Feb-19 00:30N 29°52' W 093°56'0 0.0
2018-Feb-19 00:00N 29°52' W 093°56'0 0.0
2018-Feb-18 23:30N 29°52' W 093°56'0 0.0
2018-Feb-18 23:00N 29°52' W 093°56'0 0.0
2018-Feb-18 22:30N 29°52' W 093°56'0 0.0
2018-Feb-18 22:00N 29°52' W 093°56'0 0.0
2018-Feb-18 21:30N 29°52' W 093°56'0 0.0
2018-Feb-18 21:00N 29°52' W 093°56'0 0.0
2018-Feb-18 20:30N 29°52' W 093°56'0 0.0
2018-Feb-18 20:00N 29°52' W 093°56'0 0.0
2018-Feb-18 19:30N 29°52' W 093°56'0 0.0
2018-Feb-18 19:00N 29°52' W 093°56'0 0.0
2018-Feb-18 18:30N 29°52' W 093°56'0 0.0
2018-Feb-18 18:00N 29°52' W 093°56'0 0.0
2018-Feb-18 17:30N 29°52' W 093°56'0 0.0
2018-Feb-18 17:00N 29°52' W 093°56'0 0.0
2018-Feb-18 16:30N 29°52' W 093°56'0 0.0
2018-Feb-18 16:00N 29°52' W 093°56'0 0.0
2018-Feb-18 15:30N 29°52' W 093°56'0 0.0
2018-Feb-18 15:00N 29°52' W 093°56'0 0.0
2018-Feb-18 14:30N 29°52' W 093°56'0 0.0
2018-Feb-18 14:00N 29°52' W 093°56'0 0.0
2018-Feb-18 13:30N 29°52' W 093°56'0 0.0
2018-Feb-18 13:00N 29°52' W 093°56'0 0.0
2018-Feb-18 12:30N 29°52' W 093°56'0 0.0
2018-Feb-18 12:00N 29°52' W 093°56'0 0.0
2018-Feb-18 11:30N 29°52' W 093°56'0 0.0
2018-Feb-18 11:00N 29°52' W 093°56'0 0.0
2018-Feb-18 10:30N 29°52' W 093°56'0 0.0
2018-Feb-18 10:00N 29°52' W 093°56'0 0.0
2018-Feb-18 09:30N 29°52' W 093°56'0 0.0
2018-Feb-18 09:00N 29°52' W 093°56'0 0.0
2018-Feb-18 08:30N 29°52' W 093°56'0 0.0
2018-Feb-18 08:00N 29°52' W 093°56'0 0.0
2018-Feb-18 07:30N 29°52' W 093°56'0 0.0
2018-Feb-18 07:00N 29°52' W 093°56'0 0.0
2018-Feb-18 06:30N 29°52' W 093°56'0 0.0
2018-Feb-18 06:00N 29°52' W 093°56'0 0.0
2018-Feb-18 05:30N 29°52' W 093°56'0 0.0
2018-Feb-18 05:00N 29°52' W 093°56'0 0.0
2018-Feb-18 04:30N 29°52' W 093°56'0 0.0
2018-Feb-18 04:00N 29°52' W 093°56'0 0.0
2018-Feb-18 03:30N 29°52' W 093°56'0 0.0
2018-Feb-18 03:00N 29°52' W 093°56'0 0.0
2018-Feb-18 02:30N 29°52' W 093°56'0 0.0
2018-Feb-18 02:00N 29°52' W 093°56'0 0.0
2018-Feb-18 01:30N 29°52' W 093°56'0 0.0
2018-Feb-18 01:00N 29°52' W 093°56'0 0.0
2018-Feb-18 00:30N 29°52' W 093°56'0 0.0
2018-Feb-18 00:00N 29°52' W 093°56'0 0.0
2018-Feb-17 23:30N 29°52' W 093°56'0 0.0
2018-Feb-17 23:00N 29°52' W 093°56'0 0.0
2018-Feb-17 22:30N 29°52' W 093°56'0 0.0
2018-Feb-17 22:00N 29°52' W 093°56'0 0.0
2018-Feb-17 21:30N 29°52' W 093°56'0 0.0
2018-Feb-17 21:00N 29°52' W 093°56'0 0.0
2018-Feb-17 20:30N 29°52' W 093°56'0 0.0
2018-Feb-17 20:00N 29°52' W 093°56'0 0.0
2018-Feb-17 19:30N 29°52' W 093°56'0 0.1
2018-Feb-17 19:00N 29°52' W 093°56'1 1.5
2018-Feb-17 18:30N 29°51' W 093°57'1 2.5
2018-Feb-17 18:00N 29°50' W 093°58'0 0.0
2018-Feb-17 17:28N 29°50' W 093°58'0 0.0
2018-Feb-17 16:58N 29°50' W 093°58'0 0.0
2018-Feb-17 16:28N 29°50' W 093°58'0 0.0
2018-Feb-17 15:58N 29°50' W 093°58'0 0.0
2018-Feb-17 15:28N 29°50' W 093°58'0 0.0
2018-Feb-17 14:59N 29°50' W 093°58'0 0.0
2018-Feb-17 14:28N 29°50' W 093°58'0 0.0
2018-Feb-17 13:58N 29°50' W 093°58'0 0.0
2018-Feb-17 13:28N 29°50' W 093°58'0 0.0
2018-Feb-17 12:58N 29°50' W 093°58'0 0.0
2018-Feb-17 12:28N 29°50' W 093°58'0 0.0
2018-Feb-17 11:58N 29°50' W 093°58'0 0.0
2018-Feb-17 11:28N 29°50' W 093°58'0 0.0
2018-Feb-17 10:58N 29°50' W 093°58'0 0.0
2018-Feb-17 10:28N 29°50' W 093°58'0 0.0
2018-Feb-17 09:58N 29°50' W 093°58'0 0.0
2018-Feb-17 09:28N 29°50' W 093°58'0 0.0
2018-Feb-17 08:58N 29°50' W 093°58'0 0.0
2018-Feb-17 08:28N 29°50' W 093°58'0 0.0
2018-Feb-17 07:58N 29°50' W 093°58'0 0.0
2018-Feb-17 07:28N 29°50' W 093°58'0 0.0
2018-Feb-17 06:58N 29°50' W 093°58'0 0.0
2018-Feb-17 06:28N 29°50' W 093°58'0 0.0
2018-Feb-17 05:58N 29°50' W 093°58'0 0.0
2018-Feb-17 05:28N 29°50' W 093°58'0 0.0
2018-Feb-17 04:58N 29°50' W 093°58'0 0.0
2018-Feb-17 04:28N 29°50' W 093°58'0 0.0
2018-Feb-17 03:58N 29°50' W 093°58'0 0.0
2018-Feb-17 03:28N 29°50' W 093°58'0 0.0
2018-Feb-17 02:58N 29°50' W 093°58'0 0.0
2018-Feb-17 02:28N 29°50' W 093°58'0 0.0
2018-Feb-17 01:58N 29°50' W 093°58'0 0.0
2018-Feb-17 01:28N 29°50' W 093°58'0 0.0
2018-Feb-17 00:58N 29°50' W 093°58'0 0.0
2018-Feb-17 00:28N 29°50' W 093°58'0 0.0
2018-Feb-16 23:58N 29°50' W 093°58'0 0.0
2018-Feb-16 23:28N 29°50' W 093°58'0 0.0
2018-Feb-16 22:58N 29°50' W 093°58'0 0.0
2018-Feb-16 22:28N 29°50' W 093°58'0 0.0
2018-Feb-16 21:58N 29°50' W 093°58'0 0.0
2018-Feb-16 21:28N 29°50' W 093°58'0 0.0
2018-Feb-16 20:58N 29°50' W 093°58'0 0.0
2018-Feb-16 20:28N 29°50' W 093°58'0 0.0
2018-Feb-16 19:58N 29°50' W 093°58'0 0.0
2018-Feb-16 19:28N 29°50' W 093°58'0 0.0
2018-Feb-16 18:58N 29°50' W 093°58'0 0.0
2018-Feb-16 18:28N 29°50' W 093°58'0 0.0
2018-Feb-16 17:58N 29°50' W 093°58'0 0.0
2018-Feb-16 17:28N 29°50' W 093°58'0 0.0
2018-Feb-16 16:58N 29°50' W 093°58'0 0.0
2018-Feb-16 16:25N 29°50' W 093°58'0 0.0
2018-Feb-16 15:58N 29°50' W 093°58'0 0.0
2018-Feb-16 15:28N 29°50' W 093°58'0 0.0
2018-Feb-16 14:58N 29°50' W 093°58'0 0.0
2018-Feb-16 14:28N 29°50' W 093°58'0 0.0
2018-Feb-16 13:58N 29°50' W 093°58'0 0.0
2018-Feb-16 13:28N 29°50' W 093°58'0 0.0
2018-Feb-16 12:58N 29°50' W 093°58'0 0.0
2018-Feb-16 12:28N 29°50' W 093°58'0 0.0
2018-Feb-16 11:58N 29°50' W 093°58'0 0.0
2018-Feb-16 11:28N 29°50' W 093°58'0 0.0
2018-Feb-16 10:58N 29°50' W 093°58'0 0.0
2018-Feb-16 10:28N 29°50' W 093°58'0 0.0
2018-Feb-16 09:58N 29°50' W 093°58'0 0.0
2018-Feb-16 09:28N 29°50' W 093°58'0 0.0
2018-Feb-16 08:58N 29°50' W 093°58'0 0.0
2018-Feb-16 08:28N 29°50' W 093°58'0 0.0
2018-Feb-16 07:58N 29°50' W 093°58'0 0.0
2018-Feb-16 07:28N 29°50' W 093°58'0 0.0
2018-Feb-16 06:58N 29°50' W 093°58'0 0.0
2018-Feb-16 06:28N 29°50' W 093°58'0 0.0
2018-Feb-16 05:58N 29°50' W 093°58'0 0.0
2018-Feb-16 05:28N 29°50' W 093°58'0 0.0
2018-Feb-16 04:58N 29°50' W 093°58'0 0.0
2018-Feb-16 04:28N 29°50' W 093°58'0 0.0
2018-Feb-16 03:58N 29°50' W 093°58'0 0.0
2018-Feb-16 03:28N 29°50' W 093°58'0 0.0
2018-Feb-16 02:58N 29°50' W 093°58'0 0.0
2018-Feb-16 02:28N 29°50' W 093°58'0 0.0
2018-Feb-16 01:58N 29°50' W 093°58'0 0.0
2018-Feb-16 01:28N 29°50' W 093°58'0 0.0
2018-Feb-16 00:58N 29°50' W 093°58'0 0.0
2018-Feb-16 00:28N 29°50' W 093°58'0 0.0
2018-Feb-15 23:58N 29°50' W 093°58'0 0.0
2018-Feb-15 23:28N 29°50' W 093°58'0 0.0
2018-Feb-15 22:58N 29°50' W 093°58'0 0.0
2018-Feb-15 22:28N 29°50' W 093°58'0 0.0
2018-Feb-15 21:58N 29°50' W 093°58'0 0.0
2018-Feb-15 21:28N 29°50' W 093°58'0 0.0
2018-Feb-15 20:58N 29°50' W 093°58'0 0.0
2018-Feb-15 20:28N 29°50' W 093°58'0 0.0
2018-Feb-15 19:58N 29°50' W 093°58'0 0.0
2018-Feb-15 19:28N 29°50' W 093°58'0 0.0
2018-Feb-15 18:58N 29°50' W 093°58'0 0.0
2018-Feb-15 18:28N 29°50' W 093°58'0 0.0
2018-Feb-15 17:58N 29°50' W 093°58'0 0.0
2018-Feb-15 17:28N 29°50' W 093°58'0 0.0
2018-Feb-15 16:58N 29°50' W 093°58'0 0.0
2018-Feb-15 16:28N 29°50' W 093°58'0 0.0
2018-Feb-15 15:58N 29°50' W 093°58'0 0.0
2018-Feb-15 15:28N 29°50' W 093°58'0 0.0
2018-Feb-15 14:58N 29°50' W 093°58'0 0.0
2018-Feb-15 14:28N 29°50' W 093°58'0 0.0
2018-Feb-15 13:58N 29°50' W 093°58'0 0.0
2018-Feb-15 13:28N 29°50' W 093°58'0 0.0
2018-Feb-15 12:58N 29°50' W 093°58'0 0.0
2018-Feb-15 12:28N 29°50' W 093°58'0 0.0
2018-Feb-15 11:58N 29°50' W 093°58'0 0.0
2018-Feb-15 11:28N 29°50' W 093°58'0 0.0
2018-Feb-15 10:58N 29°50' W 093°58'0 0.0
2018-Feb-15 10:28N 29°50' W 093°58'0 0.0
2018-Feb-15 09:58N 29°50' W 093°58'0 0.0
2018-Feb-15 09:28N 29°50' W 093°58'0 0.0
2018-Feb-15 08:58N 29°50' W 093°58'0 0.0
2018-Feb-15 08:28N 29°50' W 093°58'0 0.0
2018-Feb-15 07:58N 29°50' W 093°58'0 0.0
2018-Feb-15 07:28N 29°50' W 093°58'0 0.0
2018-Feb-15 06:58N 29°50' W 093°58'0 0.0
2018-Feb-15 06:25N 29°50' W 093°58'0 0.0
2018-Feb-15 05:58N 29°50' W 093°58'0 0.0
2018-Feb-15 05:28N 29°50' W 093°58'0 0.0
2018-Feb-15 04:58N 29°50' W 093°58'0 0.0
2018-Feb-15 04:28N 29°50' W 093°58'0 0.0
2018-Feb-15 03:58N 29°50' W 093°58'0 0.0
2018-Feb-15 03:28N 29°50' W 093°58'0 0.0
2018-Feb-15 02:58N 29°50' W 093°58'0 0.0
2018-Feb-15 02:28N 29°50' W 093°58'0 0.0
2018-Feb-15 01:58N 29°50' W 093°58'0 0.0
2018-Feb-15 01:28N 29°50' W 093°58'0 0.0
2018-Feb-15 00:58N 29°50' W 093°58'0 0.0
2018-Feb-15 00:28N 29°50' W 093°58'0 0.0
2018-Feb-14 23:58N 29°50' W 093°58'0 0.0
2018-Feb-14 23:28N 29°50' W 093°58'0 0.0
2018-Feb-14 22:58N 29°50' W 093°58'0 0.0
2018-Feb-14 22:28N 29°50' W 093°58'0 0.0
2018-Feb-14 21:58N 29°50' W 093°58'0 0.0
2018-Feb-14 21:28N 29°50' W 093°58'0 0.0
2018-Feb-14 20:58N 29°50' W 093°58'0 0.0
2018-Feb-14 20:28N 29°50' W 093°58'0 0.0
2018-Feb-14 19:58N 29°50' W 093°58'0 0.0
2018-Feb-14 19:28N 29°50' W 093°58'0 0.0
2018-Feb-14 18:58N 29°50' W 093°58'0 0.0
2018-Feb-14 18:28N 29°50' W 093°58'0 0.0
2018-Feb-14 17:58N 29°50' W 093°58'0 0.0
2018-Feb-14 17:28N 29°50' W 093°58'0 0.0
2018-Feb-14 16:58N 29°50' W 093°58'0 0.0
2018-Feb-14 16:28N 29°50' W 093°58'0 0.0
2018-Feb-14 15:58N 29°50' W 093°58'0 0.0
2018-Feb-14 15:28N 29°50' W 093°58'0 0.0
2018-Feb-14 14:58N 29°50' W 093°58'0 0.0
2018-Feb-14 14:28N 29°50' W 093°58'0 0.0
2018-Feb-14 13:58N 29°50' W 093°58'0 0.0
2018-Feb-14 13:28N 29°50' W 093°58'0 0.0
2018-Feb-14 12:58N 29°50' W 093°58'0 0.0
2018-Feb-14 12:28N 29°50' W 093°58'0 0.0
2018-Feb-14 11:58N 29°50' W 093°58'0 0.0
2018-Feb-14 11:28N 29°50' W 093°58'0 0.0
2018-Feb-14 10:58N 29°50' W 093°58'0 0.0
2018-Feb-14 10:28N 29°50' W 093°58'0 0.0
2018-Feb-14 09:58N 29°50' W 093°58'0 0.0
2018-Feb-14 09:28N 29°50' W 093°58'0 0.0
2018-Feb-14 08:58N 29°50' W 093°58'0 0.0
2018-Feb-14 08:28N 29°50' W 093°58'0 0.0
2018-Feb-14 07:58N 29°50' W 093°58'0 0.0
2018-Feb-14 07:28N 29°50' W 093°58'0 0.0
2018-Feb-14 06:58N 29°50' W 093°58'0 0.0
2018-Feb-14 06:28N 29°50' W 093°58'0 0.0
2018-Feb-14 05:58N 29°50' W 093°58'0 0.0
2018-Feb-14 05:28N 29°50' W 093°58'0 0.0
2018-Feb-14 04:58N 29°50' W 093°58'0 0.0
2018-Feb-14 04:28N 29°50' W 093°58'0 0.0
2018-Feb-14 03:58N 29°50' W 093°58'0 0.0
2018-Feb-14 03:28N 29°50' W 093°58'0 0.0
2018-Feb-14 02:58N 29°50' W 093°58'0 0.0
2018-Feb-14 02:28N 29°50' W 093°58'0 0.0
2018-Feb-14 01:58N 29°50' W 093°58'0 0.0
2018-Feb-14 01:28N 29°50' W 093°58'0 0.0
2018-Feb-14 00:58N 29°50' W 093°58'0 0.0
2018-Feb-14 00:28N 29°50' W 093°58'0 0.0
2018-Feb-13 23:58N 29°50' W 093°58'0 0.0
2018-Feb-13 23:28N 29°50' W 093°58'0 0.0
2018-Feb-13 22:58N 29°50' W 093°58'0 0.0
2018-Feb-13 22:28N 29°50' W 093°58'0 0.0
2018-Feb-13 21:58N 29°50' W 093°58'0 0.0
2018-Feb-13 21:28N 29°50' W 093°58'0 0.0
2018-Feb-13 20:58N 29°50' W 093°58'0 0.0
2018-Feb-13 20:28N 29°50' W 093°58'0 0.0
2018-Feb-13 19:58N 29°50' W 093°58'0 0.0
2018-Feb-13 19:28N 29°50' W 093°58'0 0.0
2018-Feb-13 18:58N 29°50' W 093°58'0 0.0
2018-Feb-13 18:30N 29°50' W 093°58'0 0.0
2018-Feb-13 18:00N 29°50' W 093°58'1 1.9
2018-Feb-13 17:30N 29°49' W 093°57'4 7.0
2018-Feb-13 17:00N 29°46' W 093°55'4 7.0
2018-Feb-13 16:30N 29°44' W 093°52'2 3.5
2018-Feb-13 16:01N 29°42' W 093°51'3 6.3
2018-Feb-13 15:30N 29°39' W 093°50'4 8.5
2018-Feb-13 15:00N 29°35' W 093°48'2 4.4
2018-Feb-13 14:31N 29°36' W 093°45'0 0.4
2018-Feb-13 14:00N 29°36' W 093°46'0 0.0
2018-Feb-13 13:30N 29°36' W 093°46'0 0.0
2018-Feb-13 13:00N 29°36' W 093°46'0 0.0
2018-Feb-13 12:30N 29°36' W 093°46'0 0.0
2018-Feb-13 12:00N 29°36' W 093°46'0 0.0
2018-Feb-13 11:30N 29°36' W 093°46'0 0.0
2018-Feb-13 11:00N 29°36' W 093°46'0 0.0
2018-Feb-13 10:30N 29°36' W 093°46'0 0.0
2018-Feb-13 09:59N 29°36' W 093°46'0 0.0
2018-Feb-13 09:30N 29°36' W 093°46'0 0.0
2018-Feb-13 09:00N 29°36' W 093°46'0 0.0
2018-Feb-13 08:29N 29°36' W 093°46'0 0.0
2018-Feb-13 08:00N 29°36' W 093°46'0 0.0
2018-Feb-13 07:30N 29°36' W 093°46'0 0.0
2018-Feb-13 07:01N 29°36' W 093°46'0 0.0
2018-Feb-13 06:30N 29°36' W 093°46'0 0.0
2018-Feb-13 05:59N 29°36' W 093°46'0 0.0
2018-Feb-13 05:30N 29°36' W 093°46'0 0.0
2018-Feb-13 04:59N 29°36' W 093°46'0 0.0
2018-Feb-13 04:30N 29°36' W 093°46'0 0.0
2018-Feb-13 04:00N 29°36' W 093°46'0 0.0
2018-Feb-13 03:30N 29°36' W 093°46'0 0.0
2018-Feb-13 03:00N 29°36' W 093°46'0 0.0
2018-Feb-13 02:30N 29°36' W 093°46'0 0.0
2018-Feb-13 02:00N 29°36' W 093°46'0 0.0
2018-Feb-13 01:30N 29°36' W 093°46'0 0.0
2018-Feb-13 01:00N 29°36' W 093°46'0 0.0
2018-Feb-13 00:30N 29°36' W 093°46'0 0.0
2018-Feb-13 00:00N 29°36' W 093°46'0 0.0
2018-Feb-12 23:30N 29°36' W 093°46'0 0.0
2018-Feb-12 23:00N 29°36' W 093°46'0 0.0
2018-Feb-12 22:30N 29°36' W 093°46'0 0.0
2018-Feb-12 22:00N 29°36' W 093°46'0 0.0
2018-Feb-12 21:30N 29°36' W 093°46'0 0.0
2018-Feb-12 21:00N 29°36' W 093°46'0 0.0
2018-Feb-12 20:30N 29°37' W 093°46'0 0.0
2018-Feb-12 20:00N 29°36' W 093°46'0 0.0
2018-Feb-12 19:30N 29°37' W 093°46'0 0.0
2018-Feb-12 19:00N 29°37' W 093°46'0 0.0
2018-Feb-12 18:30N 29°37' W 093°46'0 0.0
2018-Feb-12 18:00N 29°37' W 093°46'0 0.0
2018-Feb-12 17:30N 29°37' W 093°46'0 0.0
2018-Feb-12 17:01N 29°37' W 093°46'0 0.0
2018-Feb-12 16:30N 29°37' W 093°46'0 0.0
2018-Feb-12 16:00N 29°37' W 093°46'0 0.0
2018-Feb-12 15:30N 29°37' W 093°46'0 0.1
2018-Feb-12 15:00N 29°37' W 093°46'0 0.8
2018-Feb-12 14:30N 29°36' W 093°45'1 2.5
2018-Feb-12 14:00N 29°35' W 093°45'0 0.9
2018-Feb-12 13:30N 29°35' W 093°45'2 3.3
2018-Feb-12 12:56N 29°35' W 093°43'3 3.8
2018-Feb-12 12:16N 29°36' W 093°40'1 3.7
2018-Feb-12 11:59N 29°35' W 093°39'1 2.7
2018-Feb-12 11:30N 29°34' W 093°39'2 3.5
2018-Feb-12 11:00N 29°33' W 093°40'2 4.3
2018-Feb-12 10:30N 29°33' W 093°43'3 5.8
2018-Feb-12 09:59N 29°31' W 093°46'3 6.0
2018-Feb-12 09:27N 29°30' W 093°49'3 6.1
2018-Feb-12 08:59N 29°30' W 093°52'3 6.2
2018-Feb-12 08:27N 29°29' W 093°56'3 6.1
2018-Feb-12 08:00N 29°27' W 093°59'37 6.0
2018-Feb-12 01:44N 29°20' W 094°41'3 9.6
2018-Feb-12 01:22N 29°21' W 094°45'3 8.8
2018-Feb-12 01:00N 29°22' W 094°48'5 9.1
2018-Feb-12 00:28N 29°27' W 094°50'4 8.6
2018-Feb-12 00:00N 29°30' W 094°52'4 8.6
2018-Feb-11 23:30N 29°34' W 094°55'4 8.7
2018-Feb-11 23:00N 29°38' W 094°58'5 9.0
2018-Feb-11 22:28N 29°42' W 095°00'5 7.9
2018-Feb-11 21:53N 29°45' W 095°04'  
Track history (hours):
 
Tides and Currents Weather Stations Pressure Air Temp Water Temp Dewpoint Dewpoint Depression Visibility Wind Speed Wind Dir Waves Ship Positions

Eliza

Owner: Kirby Offshore Marine, LLC, Staten Island, NY. More information available from US FCC via Universal Licensing System and Coast Guard Vessel Documentation Center.

Last reported at 2018-Feb-21 06:17 UTC. Time now 2018-Feb-22 16:40 UTC.
Position N 29°21' W 094°44'.

Length 173 m; draft 6 m.

Type: . MMSI: 366672810.

Date/timePositionNaut miles runAvg speedWind from/ knotsBaromVisibWave heightAir tempDewpointWater temp
2018-Feb-21 06:17N 29°21' W 094°44'9 0.5
2018-Feb-20 13:28N 29°21' W 094°34'0 0.0
2018-Feb-20 12:55N 29°21' W 094°34'0 0.0
2018-Feb-20 12:28N 29°21' W 094°34'0 0.0
2018-Feb-20 06:52N 29°21' W 094°34'0 0.1
2018-Feb-20 06:28N 29°21' W 094°34'15 1.7
2018-Feb-19 21:42N 29°10' W 094°22'210.5
2018-Feb-19 21:30N 29°11' W 094°21'910.6
2018-Feb-19 20:41N 29°17' W 094°13'310.7
2018-Feb-19 20:25N 29°19' W 094°11'410.6
2018-Feb-19 20:00N 29°22' W 094°07'510.7
2018-Feb-19 19:31N 29°25' W 094°03'510.7
2018-Feb-19 19:01N 29°29' W 093°58'710.9
2018-Feb-19 18:23N 29°31' W 093°50'410.6
2018-Feb-19 18:00N 29°32' W 093°46'4 8.1
2018-Feb-19 17:31N 29°36' W 093°48'611.0
2018-Feb-19 17:00N 29°41' W 093°50'510.9
2018-Feb-19 16:30N 29°45' W 093°54'5 9.7
2018-Feb-19 16:00N 29°49' W 093°57'3 5.7
2018-Feb-19 15:30N 29°52' W 093°56'0 0.0
2018-Feb-19 15:00N 29°52' W 093°56'0 0.0
2018-Feb-19 14:30N 29°52' W 093°56'0 0.0
2018-Feb-19 14:00N 29°52' W 093°56'0 0.0
2018-Feb-19 13:30N 29°52' W 093°56'0 0.0
2018-Feb-19 13:00N 29°52' W 093°56'0 0.0
2018-Feb-19 12:30N 29°52' W 093°56'0 0.0
2018-Feb-19 12:00N 29°52' W 093°56'0 0.0
2018-Feb-19 11:30N 29°52' W 093°56'0 0.0
2018-Feb-19 11:00N 29°52' W 093°56'0 0.0
2018-Feb-19 10:30N 29°52' W 093°56'0 0.0
2018-Feb-19 10:00N 29°52' W 093°56'0 0.0
2018-Feb-19 09:30N 29°52' W 093°56'0 0.0
2018-Feb-19 09:00N 29°52' W 093°56'0 0.0
2018-Feb-19 08:30N 29°52' W 093°56'0 0.0
2018-Feb-19 08:00N 29°52' W 093°56'0 0.0
2018-Feb-19 07:30N 29°52' W 093°56'0 0.0
2018-Feb-19 07:00N 29°52' W 093°56'0 0.0
2018-Feb-19 06:30N 29°52' W 093°56'0 0.0
2018-Feb-19 06:00N 29°52' W 093°56'0 0.0
2018-Feb-19 05:30N 29°52' W 093°56'0 0.0
2018-Feb-19 05:00N 29°52' W 093°56'0 0.0
2018-Feb-19 04:30N 29°52' W 093°56'0 0.0
2018-Feb-19 04:00N 29°52' W 093°56'0 0.0
2018-Feb-19 03:30N 29°52' W 093°56'0 0.0
2018-Feb-19 03:00N 29°52' W 093°56'0 0.0
2018-Feb-19 02:30N 29°52' W 093°56'0 0.0
2018-Feb-19 02:00N 29°52' W 093°56'0 0.0
2018-Feb-19 01:30N 29°52' W 093°56'0 0.0
2018-Feb-19 01:00N 29°52' W 093°56'0 0.0
2018-Feb-19 00:30N 29°52' W 093°56'0 0.0
2018-Feb-19 00:00N 29°52' W 093°56'0 0.0
2018-Feb-18 23:30N 29°52' W 093°56'0 0.0
2018-Feb-18 23:00N 29°52' W 093°56'0 0.0
2018-Feb-18 22:30N 29°52' W 093°56'0 0.0
2018-Feb-18 22:00N 29°52' W 093°56'0 0.0
2018-Feb-18 21:30N 29°52' W 093°56'0 0.0
2018-Feb-18 21:00N 29°52' W 093°56'0 0.0
2018-Feb-18 20:30N 29°52' W 093°56'0 0.0
2018-Feb-18 20:00N 29°52' W 093°56'0 0.0
2018-Feb-18 19:30N 29°52' W 093°56'0 0.0
2018-Feb-18 19:00N 29°52' W 093°56'0 0.0
2018-Feb-18 18:30N 29°52' W 093°56'0 0.0
2018-Feb-18 18:00N 29°52' W 093°56'0 0.0
2018-Feb-18 17:30N 29°52' W 093°56'0 0.0
2018-Feb-18 17:00N 29°52' W 093°56'0 0.0
2018-Feb-18 16:30N 29°52' W 093°56'0 0.0
2018-Feb-18 16:00N 29°52' W 093°56'0 0.0
2018-Feb-18 15:30N 29°52' W 093°56'0 0.0
2018-Feb-18 15:00N 29°52' W 093°56'0 0.0
2018-Feb-18 14:30N 29°52' W 093°56'0 0.0
2018-Feb-18 14:00N 29°52' W 093°56'0 0.0
2018-Feb-18 13:30N 29°52' W 093°56'0 0.0
2018-Feb-18 13:00N 29°52' W 093°56'0 0.0
2018-Feb-18 12:30N 29°52' W 093°56'0 0.0
2018-Feb-18 12:00N 29°52' W 093°56'0 0.0
2018-Feb-18 11:30N 29°52' W 093°56'0 0.0
2018-Feb-18 11:00N 29°52' W 093°56'0 0.0
2018-Feb-18 10:30N 29°52' W 093°56'0 0.0
2018-Feb-18 10:00N 29°52' W 093°56'0 0.0
2018-Feb-18 09:30N 29°52' W 093°56'0 0.0
2018-Feb-18 09:00N 29°52' W 093°56'0 0.0
2018-Feb-18 08:30N 29°52' W 093°56'0 0.0
2018-Feb-18 08:00N 29°52' W 093°56'0 0.0
2018-Feb-18 07:30N 29°52' W 093°56'0 0.0
2018-Feb-18 07:00N 29°52' W 093°56'0 0.0
2018-Feb-18 06:30N 29°52' W 093°56'0 0.0
2018-Feb-18 06:00N 29°52' W 093°56'0 0.0
2018-Feb-18 05:30N 29°52' W 093°56'0 0.0
2018-Feb-18 05:00N 29°52' W 093°56'0 0.0
2018-Feb-18 04:30N 29°52' W 093°56'0 0.0
2018-Feb-18 04:00N 29°52' W 093°56'0 0.0
2018-Feb-18 03:30N 29°52' W 093°56'0 0.0
2018-Feb-18 03:00N 29°52' W 093°56'0 0.0
2018-Feb-18 02:30N 29°52' W 093°56'0 0.0
2018-Feb-18 02:00N 29°52' W 093°56'0 0.0
2018-Feb-18 01:30N 29°52' W 093°56'0 0.0
2018-Feb-18 01:00N 29°52' W 093°56'0 0.0
2018-Feb-18 00:30N 29°52' W 093°56'0 0.0
2018-Feb-18 00:00N 29°52' W 093°56'0 0.0
2018-Feb-17 23:30N 29°52' W 093°56'0 0.0
2018-Feb-17 23:00N 29°52' W 093°56'0 0.0
2018-Feb-17 22:30N 29°52' W 093°56'0 0.0
2018-Feb-17 22:00N 29°52' W 093°56'0 0.0
2018-Feb-17 21:30N 29°52' W 093°56'0 0.0
2018-Feb-17 21:00N 29°52' W 093°56'0 0.0
2018-Feb-17 20:30N 29°52' W 093°56'0 0.0
2018-Feb-17 20:00N 29°52' W 093°56'0 0.0
2018-Feb-17 19:30N 29°52' W 093°56'0 0.1
2018-Feb-17 19:00N 29°52' W 093°56'1 1.5
2018-Feb-17 18:30N 29°51' W 093°57'1 2.5
2018-Feb-17 18:00N 29°50' W 093°58'0 0.0
2018-Feb-17 17:28N 29°50' W 093°58'0 0.0
2018-Feb-17 16:58N 29°50' W 093°58'0 0.0
2018-Feb-17 16:28N 29°50' W 093°58'0 0.0
2018-Feb-17 15:58N 29°50' W 093°58'0 0.0
2018-Feb-17 15:28N 29°50' W 093°58'0 0.0
2018-Feb-17 14:59N 29°50' W 093°58'0 0.0
2018-Feb-17 14:28N 29°50' W 093°58'0 0.0
2018-Feb-17 13:58N 29°50' W 093°58'0 0.0
2018-Feb-17 13:28N 29°50' W 093°58'0 0.0
2018-Feb-17 12:58N 29°50' W 093°58'0 0.0
2018-Feb-17 12:28N 29°50' W 093°58'0 0.0
2018-Feb-17 11:58N 29°50' W 093°58'0 0.0
2018-Feb-17 11:28N 29°50' W 093°58'0 0.0
2018-Feb-17 10:58N 29°50' W 093°58'0 0.0
2018-Feb-17 10:28N 29°50' W 093°58'0 0.0
2018-Feb-17 09:58N 29°50' W 093°58'0 0.0
2018-Feb-17 09:28N 29°50' W 093°58'0 0.0
2018-Feb-17 08:58N 29°50' W 093°58'0 0.0
2018-Feb-17 08:28N 29°50' W 093°58'0 0.0
2018-Feb-17 07:58N 29°50' W 093°58'0 0.0
2018-Feb-17 07:28N 29°50' W 093°58'0 0.0
2018-Feb-17 06:58N 29°50' W 093°58'0 0.0
2018-Feb-17 06:28N 29°50' W 093°58'0 0.0
2018-Feb-17 05:58N 29°50' W 093°58'0 0.0
2018-Feb-17 05:28N 29°50' W 093°58'0 0.0
2018-Feb-17 04:58N 29°50' W 093°58'0 0.0
2018-Feb-17 04:28N 29°50' W 093°58'0 0.0
2018-Feb-17 03:58N 29°50' W 093°58'0 0.0
2018-Feb-17 03:28N 29°50' W 093°58'0 0.0
2018-Feb-17 02:58N 29°50' W 093°58'0 0.0
2018-Feb-17 02:28N 29°50' W 093°58'0 0.0
2018-Feb-17 01:58N 29°50' W 093°58'0 0.0
2018-Feb-17 01:28N 29°50' W 093°58'0 0.0
2018-Feb-17 00:58N 29°50' W 093°58'0 0.0
2018-Feb-17 00:28N 29°50' W 093°58'0 0.0
2018-Feb-16 23:58N 29°50' W 093°58'0 0.0
2018-Feb-16 23:28N 29°50' W 093°58'0 0.0
2018-Feb-16 22:58N 29°50' W 093°58'0 0.0
2018-Feb-16 22:28N 29°50' W 093°58'0 0.0
2018-Feb-16 21:58N 29°50' W 093°58'0 0.0
2018-Feb-16 21:28N 29°50' W 093°58'0 0.0
2018-Feb-16 20:58N 29°50' W 093°58'0 0.0
2018-Feb-16 20:28N 29°50' W 093°58'0 0.0
2018-Feb-16 19:58N 29°50' W 093°58'0 0.0
2018-Feb-16 19:28N 29°50' W 093°58'0 0.0
2018-Feb-16 18:58N 29°50' W 093°58'0 0.0
2018-Feb-16 18:28N 29°50' W 093°58'0 0.0
2018-Feb-16 17:58N 29°50' W 093°58'0 0.0
2018-Feb-16 17:28N 29°50' W 093°58'0 0.0
2018-Feb-16 16:58N 29°50' W 093°58'0 0.0
2018-Feb-16 16:25N 29°50' W 093°58'0 0.0
2018-Feb-16 15:58N 29°50' W 093°58'0 0.0
2018-Feb-16 15:28N 29°50' W 093°58'0 0.0
2018-Feb-16 14:58N 29°50' W 093°58'0 0.0
2018-Feb-16 14:28N 29°50' W 093°58'0 0.0
2018-Feb-16 13:58N 29°50' W 093°58'0 0.0
2018-Feb-16 13:28N 29°50' W 093°58'0 0.0
2018-Feb-16 12:58N 29°50' W 093°58'0 0.0
2018-Feb-16 12:28N 29°50' W 093°58'0 0.0
2018-Feb-16 11:58N 29°50' W 093°58'0 0.0
2018-Feb-16 11:28N 29°50' W 093°58'0 0.0
2018-Feb-16 10:58N 29°50' W 093°58'0 0.0
2018-Feb-16 10:28N 29°50' W 093°58'0 0.0
2018-Feb-16 09:58N 29°50' W 093°58'0 0.0
2018-Feb-16 09:28N 29°50' W 093°58'0 0.0
2018-Feb-16 08:58N 29°50' W 093°58'0 0.0
2018-Feb-16 08:28N 29°50' W 093°58'0 0.0
2018-Feb-16 07:58N 29°50' W 093°58'0 0.0
2018-Feb-16 07:28N 29°50' W 093°58'0 0.0
2018-Feb-16 06:58N 29°50' W 093°58'0 0.0
2018-Feb-16 06:28N 29°50' W 093°58'0 0.0
2018-Feb-16 05:58N 29°50' W 093°58'0 0.0
2018-Feb-16 05:28N 29°50' W 093°58'0 0.0
2018-Feb-16 04:58N 29°50' W 093°58'0 0.0
2018-Feb-16 04:28N 29°50' W 093°58'0 0.0
2018-Feb-16 03:58N 29°50' W 093°58'0 0.0
2018-Feb-16 03:28N 29°50' W 093°58'0 0.0
2018-Feb-16 02:58N 29°50' W 093°58'0 0.0
2018-Feb-16 02:28N 29°50' W 093°58'0 0.0
2018-Feb-16 01:58N 29°50' W 093°58'0 0.0
2018-Feb-16 01:28N 29°50' W 093°58'0 0.0
2018-Feb-16 00:58N 29°50' W 093°58'0 0.0
2018-Feb-16 00:28N 29°50' W 093°58'0 0.0
2018-Feb-15 23:58N 29°50' W 093°58'0 0.0
2018-Feb-15 23:28N 29°50' W 093°58'0 0.0
2018-Feb-15 22:58N 29°50' W 093°58'0 0.0
2018-Feb-15 22:28N 29°50' W 093°58'0 0.0
2018-Feb-15 21:58N 29°50' W 093°58'0 0.0
2018-Feb-15 21:28N 29°50' W 093°58'0 0.0
2018-Feb-15 20:58N 29°50' W 093°58'0 0.0
2018-Feb-15 20:28N 29°50' W 093°58'0 0.0
2018-Feb-15 19:58N 29°50' W 093°58'0 0.0
2018-Feb-15 19:28N 29°50' W 093°58'0 0.0
2018-Feb-15 18:58N 29°50' W 093°58'0 0.0
2018-Feb-15 18:28N 29°50' W 093°58'0 0.0
2018-Feb-15 17:58N 29°50' W 093°58'0 0.0
2018-Feb-15 17:28N 29°50' W 093°58'0 0.0
2018-Feb-15 16:58N 29°50' W 093°58'0 0.0
2018-Feb-15 16:28N 29°50' W 093°58'0 0.0
2018-Feb-15 15:58N 29°50' W 093°58'0 0.0
2018-Feb-15 15:28N 29°50' W 093°58'0 0.0
2018-Feb-15 14:58N 29°50' W 093°58'0 0.0
2018-Feb-15 14:28N 29°50' W 093°58'0 0.0
2018-Feb-15 13:58N 29°50' W 093°58'0 0.0
2018-Feb-15 13:28N 29°50' W 093°58'0 0.0
2018-Feb-15 12:58N 29°50' W 093°58'0 0.0
2018-Feb-15 12:28N 29°50' W 093°58'0 0.0
2018-Feb-15 11:58N 29°50' W 093°58'0 0.0
2018-Feb-15 11:28N 29°50' W 093°58'0 0.0
2018-Feb-15 10:58N 29°50' W 093°58'0 0.0
2018-Feb-15 10:28N 29°50' W 093°58'0 0.0
2018-Feb-15 09:58N 29°50' W 093°58'0 0.0
2018-Feb-15 09:28N 29°50' W 093°58'0 0.0
2018-Feb-15 08:58N 29°50' W 093°58'0 0.0
2018-Feb-15 08:28N 29°50' W 093°58'0 0.0
2018-Feb-15 07:58N 29°50' W 093°58'0 0.0
2018-Feb-15 07:28N 29°50' W 093°58'0 0.0
2018-Feb-15 06:58N 29°50' W 093°58'0 0.0
2018-Feb-15 06:25N 29°50' W 093°58'0 0.0
2018-Feb-15 05:58N 29°50' W 093°58'0 0.0
2018-Feb-15 05:28N 29°50' W 093°58'0 0.0
2018-Feb-15 04:58N 29°50' W 093°58'0 0.0
2018-Feb-15 04:28N 29°50' W 093°58'0 0.0
2018-Feb-15 03:58N 29°50' W 093°58'0 0.0
2018-Feb-15 03:28N 29°50' W 093°58'0 0.0
2018-Feb-15 02:58N 29°50' W 093°58'0 0.0
2018-Feb-15 02:28N 29°50' W 093°58'0 0.0
2018-Feb-15 01:58N 29°50' W 093°58'0 0.0
2018-Feb-15 01:28N 29°50' W 093°58'0 0.0
2018-Feb-15 00:58N 29°50' W 093°58'0 0.0
2018-Feb-15 00:28N 29°50' W 093°58'0 0.0
2018-Feb-14 23:58N 29°50' W 093°58'0 0.0
2018-Feb-14 23:28N 29°50' W 093°58'0 0.0
2018-Feb-14 22:58N 29°50' W 093°58'0 0.0
2018-Feb-14 22:28N 29°50' W 093°58'0 0.0
2018-Feb-14 21:58N 29°50' W 093°58'0 0.0
2018-Feb-14 21:28N 29°50' W 093°58'0 0.0
2018-Feb-14 20:58N 29°50' W 093°58'0 0.0
2018-Feb-14 20:28N 29°50' W 093°58'0 0.0
2018-Feb-14 19:58N 29°50' W 093°58'0 0.0
2018-Feb-14 19:28N 29°50' W 093°58'0 0.0
2018-Feb-14 18:58N 29°50' W 093°58'0 0.0
2018-Feb-14 18:28N 29°50' W 093°58'0 0.0
2018-Feb-14 17:58N 29°50' W 093°58'0 0.0
2018-Feb-14 17:28N 29°50' W 093°58'0 0.0
2018-Feb-14 16:58N 29°50' W 093°58'0 0.0
2018-Feb-14 16:28N 29°50' W 093°58'0 0.0
2018-Feb-14 15:58N 29°50' W 093°58'0 0.0
2018-Feb-14 15:28N 29°50' W 093°58'0 0.0
2018-Feb-14 14:58N 29°50' W 093°58'0 0.0
2018-Feb-14 14:28N 29°50' W 093°58'0 0.0
2018-Feb-14 13:58N 29°50' W 093°58'0 0.0
2018-Feb-14 13:28N 29°50' W 093°58'0 0.0
2018-Feb-14 12:58N 29°50' W 093°58'0 0.0
2018-Feb-14 12:28N 29°50' W 093°58'0 0.0
2018-Feb-14 11:58N 29°50' W 093°58'0 0.0
2018-Feb-14 11:28N 29°50' W 093°58'0 0.0
2018-Feb-14 10:58N 29°50' W 093°58'0 0.0
2018-Feb-14 10:28N 29°50' W 093°58'0 0.0
2018-Feb-14 09:58N 29°50' W 093°58'0 0.0
2018-Feb-14 09:28N 29°50' W 093°58'0 0.0
2018-Feb-14 08:58N 29°50' W 093°58'0 0.0
2018-Feb-14 08:28N 29°50' W 093°58'0 0.0
2018-Feb-14 07:58N 29°50' W 093°58'0 0.0
2018-Feb-14 07:28N 29°50' W 093°58'0 0.0
2018-Feb-14 06:58N 29°50' W 093°58'0 0.0
2018-Feb-14 06:28N 29°50' W 093°58'0 0.0
2018-Feb-14 05:58N 29°50' W 093°58'0 0.0
2018-Feb-14 05:28N 29°50' W 093°58'0 0.0
2018-Feb-14 04:58N 29°50' W 093°58'0 0.0
2018-Feb-14 04:28N 29°50' W 093°58'0 0.0
2018-Feb-14 03:58N 29°50' W 093°58'0 0.0
2018-Feb-14 03:28N 29°50' W 093°58'0 0.0
2018-Feb-14 02:58N 29°50' W 093°58'0 0.0
2018-Feb-14 02:28N 29°50' W 093°58'0 0.0
2018-Feb-14 01:58N 29°50' W 093°58'0 0.0
2018-Feb-14 01:28N 29°50' W 093°58'0 0.0
2018-Feb-14 00:58N 29°50' W 093°58'0 0.0
2018-Feb-14 00:28N 29°50' W 093°58'0 0.0
2018-Feb-13 23:58N 29°50' W 093°58'0 0.0
2018-Feb-13 23:28N 29°50' W 093°58'0 0.0
2018-Feb-13 22:58N 29°50' W 093°58'0 0.0
2018-Feb-13 22:28N 29°50' W 093°58'0 0.0
2018-Feb-13 21:58N 29°50' W 093°58'0 0.0
2018-Feb-13 21:28N 29°50' W 093°58'0 0.0
2018-Feb-13 20:58N 29°50' W 093°58'0 0.0
2018-Feb-13 20:28N 29°50' W 093°58'0 0.0
2018-Feb-13 19:58N 29°50' W 093°58'0 0.0
2018-Feb-13 19:28N 29°50' W 093°58'0 0.0
2018-Feb-13 18:58N 29°50' W 093°58'0 0.0
2018-Feb-13 18:30N 29°50' W 093°58'0 0.0
2018-Feb-13 18:00N 29°50' W 093°58'1 1.9
2018-Feb-13 17:30N 29°49' W 093°57'4 7.0
2018-Feb-13 17:00N 29°46' W 093°55'4 7.0
2018-Feb-13 16:30N 29°44' W 093°52'2 3.5
2018-Feb-13 16:01N 29°42' W 093°51'3 6.3
2018-Feb-13 15:30N 29°39' W 093°50'4 8.5
2018-Feb-13 15:00N 29°35' W 093°48'2 4.4
2018-Feb-13 14:31N 29°36' W 093°45'0 0.4
2018-Feb-13 14:00N 29°36' W 093°46'0 0.0
2018-Feb-13 13:30N 29°36' W 093°46'0 0.0
2018-Feb-13 13:00N 29°36' W 093°46'0 0.0
2018-Feb-13 12:30N 29°36' W 093°46'0 0.0
2018-Feb-13 12:00N 29°36' W 093°46'0 0.0
2018-Feb-13 11:30N 29°36' W 093°46'0 0.0
2018-Feb-13 11:00N 29°36' W 093°46'0 0.0
2018-Feb-13 10:30N 29°36' W 093°46'0 0.0
2018-Feb-13 09:59N 29°36' W 093°46'0 0.0
2018-Feb-13 09:30N 29°36' W 093°46'0 0.0
2018-Feb-13 09:00N 29°36' W 093°46'0 0.0
2018-Feb-13 08:29N 29°36' W 093°46'0 0.0
2018-Feb-13 08:00N 29°36' W 093°46'0 0.0
2018-Feb-13 07:30N 29°36' W 093°46'0 0.0
2018-Feb-13 07:01N 29°36' W 093°46'0 0.0
2018-Feb-13 06:30N 29°36' W 093°46'0 0.0
2018-Feb-13 05:59N 29°36' W 093°46'0 0.0
2018-Feb-13 05:30N 29°36' W 093°46'0 0.0
2018-Feb-13 04:59N 29°36' W 093°46'0 0.0
2018-Feb-13 04:30N 29°36' W 093°46'0 0.0
2018-Feb-13 04:00N 29°36' W 093°46'0 0.0
2018-Feb-13 03:30N 29°36' W 093°46'0 0.0
2018-Feb-13 03:00N 29°36' W 093°46'0 0.0
2018-Feb-13 02:30N 29°36' W 093°46'0 0.0
2018-Feb-13 02:00N 29°36' W 093°46'0 0.0
2018-Feb-13 01:30N 29°36' W 093°46'0 0.0
2018-Feb-13 01:00N 29°36' W 093°46'0 0.0
2018-Feb-13 00:30N 29°36' W 093°46'0 0.0
2018-Feb-13 00:00N 29°36' W 093°46'0 0.0
2018-Feb-12 23:30N 29°36' W 093°46'0 0.0
2018-Feb-12 23:00N 29°36' W 093°46'0 0.0
2018-Feb-12 22:30N 29°36' W 093°46'0 0.0
2018-Feb-12 22:00N 29°36' W 093°46'0 0.0
2018-Feb-12 21:30N 29°36' W 093°46'0 0.0
2018-Feb-12 21:00N 29°36' W 093°46'0 0.0
2018-Feb-12 20:30N 29°37' W 093°46'0 0.0
2018-Feb-12 20:00N 29°36' W 093°46'0 0.0
2018-Feb-12 19:30N 29°37' W 093°46'0 0.0
2018-Feb-12 19:00N 29°37' W 093°46'0 0.0
2018-Feb-12 18:30N 29°37' W 093°46'0 0.0
2018-Feb-12 18:00N 29°37' W 093°46'0 0.0
2018-Feb-12 17:30N 29°37' W 093°46'0 0.0
2018-Feb-12 17:01N 29°37' W 093°46'0 0.0
2018-Feb-12 16:30N 29°37' W 093°46'0 0.0
2018-Feb-12 16:00N 29°37' W 093°46'0 0.0
2018-Feb-12 15:30N 29°37' W 093°46'0 0.1
2018-Feb-12 15:00N 29°37' W 093°46'0 0.8
2018-Feb-12 14:30N 29°36' W 093°45'1 2.5
2018-Feb-12 14:00N 29°35' W 093°45'0 0.9
2018-Feb-12 13:30N 29°35' W 093°45'2 3.3
2018-Feb-12 12:56N 29°35' W 093°43'3 3.8
2018-Feb-12 12:16N 29°36' W 093°40'1 3.7
2018-Feb-12 11:59N 29°35' W 093°39'1 2.7
2018-Feb-12 11:30N 29°34' W 093°39'2 3.5
2018-Feb-12 11:00N 29°33' W 093°40'2 4.3
2018-Feb-12 10:30N 29°33' W 093°43'3 5.8
2018-Feb-12 09:59N 29°31' W 093°46'3 6.0
2018-Feb-12 09:27N 29°30' W 093°49'3 6.1
2018-Feb-12 08:59N 29°30' W 093°52'3 6.2
2018-Feb-12 08:27N 29°29' W 093°56'3 6.1
2018-Feb-12 08:00N 29°27' W 093°59'37 6.0
2018-Feb-12 01:44N 29°20' W 094°41'3 9.6
2018-Feb-12 01:22N 29°21' W 094°45'3 8.8
2018-Feb-12 01:00N 29°22' W 094°48'5 9.1
2018-Feb-12 00:28N 29°27' W 094°50'4 8.6
2018-Feb-12 00:00N 29°30' W 094°52'4 8.6
2018-Feb-11 23:30N 29°34' W 094°55'4 8.7
2018-Feb-11 23:00N 29°38' W 094°58'5 9.0
2018-Feb-11 22:28N 29°42' W 095°00'5 7.9
2018-Feb-11 21:53N 29°45' W 095°04'  

Dump ship's entire track history